Time;durP1;ratioP1;P1;durP2;ratioP2;P2;SDS_P1;SDS_P2;PMS_P1;PMS_P2;Temp;Humidity;BMP_temperature;BMP_pressure;BME280_temperature;BME280_humidity;BME280_pressure;Samples;Min_cycle;Max_cycle;Signal;HPM_P1;HPM_P2
2022/02/16 21:02:23;;;;;;;14.55;12.40;;;;;;;;;;6209041;23;20028;-74
2022/02/16 21:04:50;;;;;;;21.02;14.23;;;;;;;;;;6182396;23;20012;-76
2022/02/16 21:07:35;;;;;;;23.23;16.00;;;;;;;;;;6209320;23;20039;-74
2022/02/16 21:10:01;;;;;;;13.75;11.88;;;;;;;;;;6183054;23;20012;-71
2022/02/16 21:12:27;;;;;;;22.90;16.63;;;;;;;;;;6209812;23;20040;-71
2022/02/16 21:14:53;;;;;;;19.45;15.27;;;;;;;;;;6182937;23;20019;-71
2022/02/16 21:17:19;;;;;;;15.13;11.90;;;;;;;;;;6183249;23;20039;-73
2022/02/16 21:19:45;;;;;;;19.55;11.38;;;;;;;;;;6209313;23;20012;-72
2022/02/16 21:22:12;;;;;;;18.45;13.52;;;;;;;;;;6209680;23;20124;-73
2022/02/16 21:24:39;;;;;;;12.45;10.55;;;;;;;;;;6182479;23;20067;-73
2022/02/16 21:27:04;;;;;;;20.13;12.52;;;;;;;;;;6158082;23;20412;-73
2022/02/16 21:29:31;;;;;;;22.60;14.25;;;;;;;;;;6209689;23;20035;-73
2022/02/16 21:31:57;;;;;;;21.50;16.50;;;;;;;;;;6209033;23;20019;-72
2022/02/16 21:34:23;;;;;;;18.77;14.48;;;;;;;;;;6157542;23;20013;-72
2022/02/16 21:36:49;;;;;;;18.00;12.63;;;;;;;;;;6209076;23;20009;-73
2022/02/16 21:39:33;;;;;;;16.08;14.13;;;;;;;;;;6185772;23;20023;-74
2022/02/16 21:41:59;;;;;;;15.07;13.65;;;;;;;;;;6182278;23;20428;-71
2022/02/16 21:44:26;;;;;;;20.88;15.35;;;;;;;;;;6208905;23;20539;-72
2022/02/16 21:46:52;;;;;;;23.52;18.60;;;;;;;;;;6208263;23;20016;-72
2022/02/16 21:49:18;;;;;;;19.67;13.20;;;;;;;;;;6182418;23;20060;-73
2022/02/16 21:51:44;;;;;;;16.83;13.95;;;;;;;;;;6208723;23;20031;-72
2022/02/16 21:54:12;;;;;;;28.00;17.38;;;;;;;;;;6208622;23;20029;-72
2022/02/16 21:56:39;;;;;;;14.80;12.05;;;;;;;;;;6158146;23;20016;-73
2022/02/16 21:59:06;;;;;;;14.65;11.20;;;;;;;;;;6209106;23;20008;-71
2022/02/16 22:01:32;;;;;;;13.65;10.57;;;;;;;;;;6232397;23;20031;-72
2022/02/16 22:03:58;;;;;;;27.45;18.52;;;;;;;;;;6237267;23;20020;-72
2022/02/16 22:06:24;;;;;;;25.98;17.88;;;;;;;;;;6239601;23;20328;-73
2022/02/16 22:08:49;;;;;;;23.77;15.88;;;;;;;;;;6237329;23;20020;-72
2022/02/16 22:11:15;;;;;;;27.95;17.95;;;;;;;;;;6188701;23;20015;-72
2022/02/16 22:13:41;;;;;;;27.92;21.35;;;;;;;;;;6242285;23;20067;-72
2022/02/16 22:16:08;;;;;;;26.63;15.15;;;;;;;;;;6241356;23;20012;-72
2022/02/16 22:18:34;;;;;;;21.13;13.23;;;;;;;;;;6216054;23;20340;-72
2022/02/16 22:21:00;;;;;;;22.77;14.05;;;;;;;;;;6243064;23;20039;-72
2022/02/16 22:23:27;;;;;;;27.05;16.67;;;;;;;;;;6243804;23;20407;-71
2022/02/16 22:25:53;;;;;;;27.95;18.95;;;;;;;;;;6273770;22;20094;-70
2022/02/16 22:28:19;;;;;;;30.05;17.83;;;;;;;;;;6246730;22;20047;-71
2022/02/16 22:30:45;;;;;;;18.52;14.98;;;;;;;;;;6274356;22;20008;-71
2022/02/16 22:33:11;;;;;;;26.00;16.80;;;;;;;;;;6275100;22;20015;-70
2022/02/16 22:35:37;;;;;;;24.83;18.60;;;;;;;;;;6247798;22;20014;-73
2022/02/16 22:38:02;;;;;;;23.40;15.20;;;;;;;;;;6273854;22;20012;-71
2022/02/16 22:40:28;;;;;;;19.83;14.70;;;;;;;;;;6274326;22;20340;-71
2022/02/16 22:42:54;;;;;;;31.83;17.85;;;;;;;;;;6273806;22;20015;-72
2022/02/16 22:45:20;;;;;;;31.42;19.15;;;;;;;;;;6274170;22;20039;-71
2022/02/16 22:47:46;;;;;;;20.45;14.80;;;;;;;;;;6273600;22;20050;-72
2022/02/16 22:50:12;;;;;;;23.67;16.65;;;;;;;;;;6246968;22;20081;-72
2022/02/16 22:52:38;;;;;;;23.30;16.20;;;;;;;;;;6246713;22;20011;-72
2022/02/16 22:55:04;;;;;;;28.77;19.30;;;;;;;;;;6247061;22;20095;-71
2022/02/16 22:57:30;;;;;;;26.05;16.40;;;;;;;;;;6273916;22;20030;-71
2022/02/16 22:59:58;;;;;;;23.10;15.75;;;;;;;;;;6221669;22;20353;-71
2022/02/16 23:10:38;;;;;;;15.38;11.98;;;;;;;;;;6273929;22;20022;-71
2022/02/16 23:13:14;;;;;;;26.80;16.10;;;;;;;;;;6273700;22;20011;-71
2022/02/16 23:15:42;;;;;;;23.70;17.73;;;;;;;;;;6273631;22;20018;-73
2022/02/16 23:18:08;;;;;;;24.55;16.42;;;;;;;;;;6273645;22;20022;-71
2022/02/16 23:20:34;;;;;;;19.10;12.05;;;;;;;;;;6273554;22;20011;-71
2022/02/16 23:23:00;;;;;;;22.02;12.70;;;;;;;;;;6273212;22;20011;-73
2022/02/16 23:25:26;;;;;;;17.08;11.07;;;;;;;;;;6246910;22;20098;-73
2022/02/16 23:27:52;;;;;;;27.10;18.92;;;;;;;;;;6273007;22;20050;-70
2022/02/16 23:30:18;;;;;;;16.50;11.60;;;;;;;;;;6246669;22;20016;-71
2022/02/16 23:32:44;;;;;;;28.30;17.48;;;;;;;;;;6273369;22;20086;-71
2022/02/16 23:35:10;;;;;;;28.23;18.58;;;;;;;;;;6273929;22;20104;-72
2022/02/16 23:37:36;;;;;;;17.40;11.65;;;;;;;;;;6273664;22;20016;-71
2022/02/16 23:40:04;;;;;;;19.30;13.57;;;;;;;;;;6273351;22;20019;-72
2022/02/16 23:42:30;;;;;;;19.20;12.50;;;;;;;;;;6246489;22;20073;-73
2022/02/16 23:44:58;;;;;;;21.52;13.50;;;;;;;;;;6273329;22;20449;-72
2022/02/16 23:47:25;;;;;;;23.15;14.63;;;;;;;;;;6273387;22;20452;-71
2022/02/16 23:49:51;;;;;;;18.95;11.45;;;;;;;;;;6246120;22;20477;-71
2022/02/16 23:52:17;;;;;;;27.10;15.57;;;;;;;;;;6273244;22;20027;-72
2022/02/16 23:54:42;;;;;;;29.92;19.58;;;;;;;;;;6246060;22;20011;-71
2022/02/16 23:57:08;;;;;;;36.78;21.33;;;;;;;;;;6273273;22;20015;-71
2022/02/16 23:59:34;;;;;;;30.33;18.98;;;;;;;;;;6246341;22;20444;-71
